createdAt,value
2022-09-24T00:01:51.644Z,100244.78
2022-09-24T00:04:20.154Z,100248.72
2022-09-24T00:06:49.120Z,100240.88
2022-09-24T00:09:19.063Z,100242.53
2022-09-24T00:11:47.358Z,100236.47
2022-09-24T00:14:17.299Z,100235.03
2022-09-24T00:16:46.225Z,100215.25
2022-09-24T00:19:14.957Z,100231.44
2022-09-24T00:21:42.979Z,100237.91
2022-09-24T00:24:34.689Z,100235.16
2022-09-24T00:27:02.950Z,100227.50
2022-09-24T00:29:35.240Z,100225.16
2022-09-24T00:32:04.225Z,100222.09
2022-09-24T00:34:32.075Z,100198.22
2022-09-24T00:37:00.109Z,100224.34
2022-09-24T00:39:28.186Z,100229.22
2022-09-24T00:41:56.031Z,100233.44
2022-09-24T00:44:56.379Z,100234.63
2022-09-24T00:47:34.760Z,100233.84
2022-09-24T00:50:15.769Z,100207.19
2022-09-24T00:52:48.071Z,100222.91
2022-09-24T00:55:17.099Z,100217.09
2022-09-24T00:57:45.978Z,100215.19
2022-09-24T01:00:15.902Z,100217.38
2022-09-24T01:02:47.422Z,100209.28
2022-09-24T01:05:15.312Z,100218.53
2022-09-24T01:07:43.160Z,100207.50
2022-09-24T01:10:11.693Z,100207.13
2022-09-24T01:12:48.050Z,100206.16
2022-09-24T01:15:26.543Z,100199.72
2022-09-24T01:18:01.433Z,100200.09
2022-09-24T01:20:47.302Z,100195.13
2022-09-24T01:23:47.823Z,100188.53
2022-09-24T01:26:37.203Z,100193.38
2022-09-24T01:29:32.028Z,100187.13
2022-09-24T01:32:05.249Z,100190.09
2022-09-24T01:34:41.620Z,100188.22
2022-09-24T01:37:10.261Z,100173.00
2022-09-24T01:39:39.219Z,100174.72
2022-09-24T01:42:10.443Z,100173.63
2022-09-24T01:44:44.646Z,100162.78
2022-09-24T01:47:19.933Z,100161.22
2022-09-24T01:49:47.980Z,100168.53
2022-09-24T01:52:24.988Z,100158.69
2022-09-24T01:54:55.647Z,100149.75
2022-09-24T01:57:26.628Z,100145.34
2022-09-24T02:00:00.064Z,100155.34
2022-09-24T02:02:32.818Z,100149.75
2022-09-24T02:05:06.881Z,100153.94
2022-09-24T02:07:39.125Z,100152.50
2022-09-24T02:10:10.812Z,100163.59
2022-09-24T02:12:42.900Z,100161.50
2022-09-24T02:15:17.392Z,100170.09
2022-09-24T02:17:49.263Z,100155.53
2022-09-24T02:20:22.079Z,100170.94
2022-09-24T02:22:52.667Z,100150.13
2022-09-24T02:25:24.334Z,100154.97
2022-09-24T02:27:52.189Z,100144.97
2022-09-24T02:30:21.443Z,100146.22
2022-09-24T02:32:51.742Z,100132.13
2022-09-24T02:35:18.744Z,100149.19
2022-09-24T02:37:47.955Z,100145.03
2022-09-24T02:40:16.631Z,100135.44
2022-09-24T02:42:44.824Z,100135.44
2022-09-24T02:45:14.477Z,100131.13
2022-09-24T02:47:43.710Z,100136.09
2022-09-24T02:50:11.477Z,100137.59
2022-09-24T02:52:39.176Z,100143.59
2022-09-24T02:55:07.273Z,100150.06
2022-09-24T02:57:35.295Z,100147.78
2022-09-24T03:00:03.622Z,100140.91
2022-09-24T03:02:31.476Z,100148.63
2022-09-24T03:05:00.678Z,100149.06
2022-09-24T03:07:28.498Z,100154.88
2022-09-24T03:09:56.269Z,100158.19
2022-09-24T03:12:24.910Z,100159.44
2022-09-24T03:14:52.884Z,100154.69
2022-09-24T03:17:20.632Z,100145.50
2022-09-24T03:19:48.526Z,100124.53
2022-09-24T03:22:17.601Z,100147.59
2022-09-24T03:24:46.082Z,100154.88
2022-09-24T03:27:13.862Z,100143.84
2022-09-24T03:29:59.280Z,100146.34
2022-09-24T03:32:27.729Z,100156.34
2022-09-24T03:34:55.458Z,100148.84
2022-09-24T03:37:24.522Z,100158.22
2022-09-24T03:39:52.318Z,100159.66
2022-09-24T03:42:20.063Z,100166.31
2022-09-24T03:44:47.836Z,100150.31
2022-09-24T03:47:15.596Z,100147.41
2022-09-24T03:49:43.366Z,100144.06
2022-09-24T03:52:11.131Z,100149.69
2022-09-24T03:54:40.248Z,100146.34
2022-09-24T03:57:07.976Z,100132.63
2022-09-24T03:59:35.817Z,100127.66
2022-09-24T04:02:03.650Z,100124.91
2022-09-24T04:04:31.400Z,100125.75
2022-09-24T04:06:59.371Z,100128.06
2022-09-24T04:09:27.196Z,100123.88
2022-09-24T04:11:56.874Z,100112.66
2022-09-24T04:14:24.631Z,100120.78
2022-09-24T04:16:53.003Z,100111.59
2022-09-24T04:19:20.845Z,100108.47
2022-09-24T04:21:48.605Z,100100.78
2022-09-24T04:24:16.455Z,100099.75
2022-09-24T04:26:44.187Z,100104.13
2022-09-24T04:29:14.333Z,100102.66
2022-09-24T04:31:42.293Z,100102.88
2022-09-24T04:34:10.243Z,100092.69
2022-09-24T04:36:38.155Z,100096.63
2022-09-24T04:39:06.427Z,100099.13
2022-09-24T04:41:35.049Z,100096.00
2022-09-24T04:44:03.756Z,100102.22
2022-09-24T04:46:33.452Z,100098.91
2022-09-24T04:49:01.399Z,100100.59
2022-09-24T04:51:29.269Z,100095.00
2022-09-24T04:53:57.077Z,100096.03
2022-09-24T04:56:24.768Z,100107.47
2022-09-24T04:58:52.719Z,100102.88
2022-09-24T05:01:21.002Z,100093.91
2022-09-24T05:03:50.497Z,100103.47
2022-09-24T05:06:18.301Z,100091.22
2022-09-24T05:08:46.182Z,100098.50
2022-09-24T05:11:14.113Z,100109.72
2022-09-24T05:13:41.906Z,100123.84
2022-09-24T05:16:09.708Z,100125.72
2022-09-24T05:18:37.536Z,100126.31
2022-09-24T05:21:07.452Z,100121.31
2022-09-24T05:23:35.254Z,100137.97
2022-09-24T05:26:20.775Z,100128.41
2022-09-24T05:28:48.563Z,100132.34
2022-09-24T05:31:17.414Z,100122.78
2022-09-24T05:33:46.271Z,100123.38
2022-09-24T05:36:16.052Z,100125.44
2022-09-24T05:38:43.917Z,100121.47
2022-09-24T05:41:11.762Z,100110.00
2022-09-24T05:43:39.522Z,100130.16
2022-09-24T05:46:07.990Z,100133.25
2022-09-24T05:48:35.877Z,100129.94
2022-09-24T05:51:04.080Z,100142.63
2022-09-24T05:53:33.849Z,100118.66
2022-09-24T05:56:02.247Z,100120.69
2022-09-24T05:58:30.013Z,100125.41
2022-09-24T06:00:59.853Z,100121.47
2022-09-24T06:03:27.716Z,100129.78
2022-09-24T06:05:56.295Z,100136.00
2022-09-24T06:08:24.161Z,100136.00
2022-09-24T06:10:54.216Z,100131.38
2022-09-24T06:13:22.508Z,100128.75
2022-09-24T06:15:50.287Z,100130.13
2022-09-24T06:18:18.486Z,100130.25
2022-09-24T06:20:46.941Z,100140.22
2022-09-24T06:23:14.895Z,100133.41
2022-09-24T06:25:42.731Z,100136.94
2022-09-24T06:28:11.881Z,100146.13
2022-09-24T06:30:41.163Z,100141.19
2022-09-24T06:33:11.143Z,100148.13
2022-09-24T06:35:40.471Z,100149.09
2022-09-24T06:38:11.475Z,100147.63
2022-09-24T06:40:40.045Z,100140.13
2022-09-24T06:43:08.303Z,100137.63
2022-09-24T06:45:37.620Z,100146.53
2022-09-24T06:48:07.124Z,100145.09
2022-09-24T06:50:36.064Z,100142.78
2022-09-24T06:53:06.743Z,100138.88
2022-09-24T06:55:35.180Z,100144.81
2022-09-24T06:58:05.714Z,100146.69
2022-09-24T07:00:34.386Z,100146.44
2022-09-24T07:03:03.647Z,100136.97
2022-09-24T07:05:31.396Z,100132.47
2022-09-24T07:07:59.143Z,100146.13
2022-09-24T07:10:27.390Z,100138.97
2022-09-24T07:12:55.552Z,100140.28
2022-09-24T07:15:23.453Z,100134.25
2022-09-24T07:17:56.130Z,100141.47
2022-09-24T07:20:28.085Z,100135.59
2022-09-24T07:22:56.715Z,100142.50
2022-09-24T07:25:24.778Z,100140.25
2022-09-24T07:27:52.693Z,100148.38
2022-09-24T07:30:20.682Z,100156.09
2022-09-24T07:32:50.604Z,100143.09
2022-09-24T07:35:20.957Z,100137.22
2022-09-24T07:37:50.228Z,100145.59
2022-09-24T07:40:18.354Z,100146.56
2022-09-24T07:42:49.365Z,100144.75
2022-09-24T07:45:17.456Z,100146.69
2022-09-24T07:47:45.355Z,100155.22
2022-09-24T07:50:13.692Z,100147.69
2022-09-24T07:52:41.590Z,100156.84
2022-09-24T07:55:10.829Z,100155.91
2022-09-24T07:57:39.281Z,100161.56
2022-09-24T08:00:08.228Z,100159.75
2022-09-24T08:02:36.012Z,100168.75
2022-09-24T08:05:03.778Z,100158.50
2022-09-24T08:07:31.578Z,100164.72
2022-09-24T08:10:01.411Z,100162.31
2022-09-24T08:12:30.520Z,100153.13
2022-09-24T08:14:58.295Z,100147.03
2022-09-24T08:17:26.518Z,100137.34
2022-09-24T08:19:56.753Z,100150.59
2022-09-24T08:22:24.947Z,100146.28
2022-09-24T08:24:52.892Z,100137.34
2022-09-24T08:27:21.217Z,100135.34
2022-09-24T08:29:50.423Z,100143.16
2022-09-24T08:32:18.509Z,100145.63
2022-09-24T08:34:46.261Z,100146.78
2022-09-24T08:37:14.448Z,100161.19
2022-09-24T08:39:42.214Z,100151.06
2022-09-24T08:42:16.094Z,100155.56
2022-09-24T08:45:03.803Z,100152.84
2022-09-24T08:47:43.270Z,100158.34
2022-09-24T08:50:17.294Z,100156.22
2022-09-24T08:52:54.703Z,100171.19
2022-09-24T08:55:30.005Z,100172.03
2022-09-24T08:58:06.010Z,100159.53
2022-09-24T09:00:40.628Z,100159.66
2022-09-24T09:03:19.047Z,100152.66
2022-09-24T09:05:55.310Z,100152.03
2022-09-24T09:08:54.905Z,100156.38
2022-09-24T09:11:25.102Z,100147.94
2022-09-24T09:13:57.538Z,100147.66
2022-09-24T09:16:28.813Z,100139.41
2022-09-24T09:19:04.712Z,100137.50
2022-09-24T09:21:41.586Z,100142.06
2022-09-24T09:24:18.078Z,100131.63
2022-09-24T09:26:49.670Z,100154.25
2022-09-24T09:29:18.198Z,100157.00
2022-09-24T09:32:00.534Z,100151.47
2022-09-24T09:34:44.893Z,100161.59
2022-09-24T09:37:26.071Z,100159.50
2022-09-24T09:40:05.030Z,100158.59
2022-09-24T09:42:36.162Z,100163.53
2022-09-24T09:45:14.816Z,100147.63
2022-09-24T09:47:46.708Z,100148.34
2022-09-24T09:50:26.625Z,100149.59
2022-09-24T09:52:55.353Z,100142.44
2022-09-24T09:55:26.180Z,100140.41
2022-09-24T09:57:55.227Z,100143.03
2022-09-24T10:00:28.920Z,100149.78
2022-09-24T10:03:02.059Z,100151.97
2022-09-24T10:05:39.803Z,100151.59
2022-09-24T10:08:21.809Z,100145.47
2022-09-24T10:10:55.324Z,100132.66
2022-09-24T10:13:23.828Z,100134.66
2022-09-24T10:15:54.655Z,100143.84
2022-09-24T10:18:31.479Z,100132.75
2022-09-24T10:21:04.181Z,100130.00
2022-09-24T10:23:37.837Z,100128.84
2022-09-24T10:26:07.617Z,100134.59
2022-09-24T10:28:58.354Z,100126.47
2022-09-24T10:31:30.458Z,100125.34
2022-09-24T10:34:00.058Z,100121.53
2022-09-24T10:36:32.435Z,100121.38
2022-09-24T10:39:05.233Z,100109.50
2022-09-24T10:41:33.064Z,100118.88
2022-09-24T10:44:04.866Z,100107.38
2022-09-24T10:46:59.853Z,100119.13
2022-09-24T10:49:41.746Z,100120.44
2022-09-24T10:52:29.100Z,100113.63
2022-09-24T10:55:15.168Z,100120.78
2022-09-24T10:57:50.402Z,100118.53
2022-09-24T11:00:21.672Z,100109.22
2022-09-24T11:03:12.785Z,100102.44
2022-09-24T11:05:46.187Z,100107.94
2022-09-24T11:08:26.975Z,100101.22
2022-09-24T11:11:09.899Z,100092.09
2022-09-24T11:13:42.960Z,100100.84
2022-09-24T11:16:39.941Z,100082.50
2022-09-24T11:19:16.179Z,100096.09
2022-09-24T11:22:00.802Z,100094.59
2022-09-24T11:24:48.592Z,100084.94
2022-09-24T11:27:39.446Z,100086.91
2022-09-24T11:30:14.383Z,100080.25
2022-09-24T11:32:55.156Z,100072.09
2022-09-24T11:35:47.109Z,100070.59
2022-09-24T11:38:19.062Z,100069.34
2022-09-24T11:41:05.234Z,100066.59
2022-09-24T11:43:56.437Z,100070.41
2022-09-24T11:46:36.568Z,100064.50
2022-09-24T11:49:21.267Z,100069.72
2022-09-24T11:51:56.899Z,100059.41
2022-09-24T11:54:31.787Z,100067.31
2022-09-24T11:57:07.672Z,100062.16
2022-09-24T11:59:41.451Z,100060.03
2022-09-24T12:02:17.873Z,100047.75
2022-09-24T12:04:54.317Z,100042.84
2022-09-24T12:07:29.070Z,100046.56
2022-09-24T12:10:02.188Z,100036.72
2022-09-24T12:12:37.424Z,100047.38
2022-09-24T12:15:13.521Z,100027.38
2022-09-24T12:17:45.158Z,100029.44
2022-09-24T12:20:20.293Z,100028.81
2022-09-24T12:22:51.401Z,100033.13
2022-09-24T12:25:19.285Z,100038.63
2022-09-24T12:27:49.302Z,100034.03
2022-09-24T12:30:49.264Z,100033.69
2022-09-24T12:33:23.671Z,100032.22
2022-09-24T12:36:02.096Z,100030.00
2022-09-24T12:38:35.018Z,100026.03
2022-09-24T12:41:27.487Z,100024.25
2022-09-24T12:44:01.260Z,100031.47
2022-09-24T12:46:34.067Z,100019.03
2022-09-24T12:49:02.422Z,100028.66
2022-09-24T12:51:39.332Z,100021.66
2022-09-24T12:54:10.223Z,100016.09
2022-09-24T12:56:37.987Z,100021.91
2022-09-24T12:59:07.134Z,100021.72
2022-09-24T13:01:35.700Z,100012.22
2022-09-24T13:04:29.691Z,100015.59
2022-09-24T13:06:57.545Z,100018.22
2022-09-24T13:09:37.461Z,100020.03
2022-09-24T13:12:22.406Z,100003.09
2022-09-24T13:15:01.386Z,100007.88
2022-09-24T13:17:29.866Z,100006.59
2022-09-24T13:20:00.031Z,99993.19
2022-09-24T13:22:30.446Z,99988.47
2022-09-24T13:25:20.777Z,99984.88
2022-09-24T13:27:58.925Z,99992.84
2022-09-24T13:30:36.380Z,99996.91
2022-09-24T13:33:21.256Z,99993.03
2022-09-24T13:36:03.378Z,99981.47
2022-09-24T13:38:37.294Z,99980.66
2022-09-24T13:41:23.698Z,99983.91
2022-09-24T13:43:56.892Z,99982.38
2022-09-24T13:46:28.025Z,99988.34
2022-09-24T13:49:00.746Z,99986.75
2022-09-24T13:51:32.214Z,99988.09
2022-09-24T13:54:07.968Z,99981.78
2022-09-24T13:56:36.053Z,99986.63
2022-09-24T13:59:06.312Z,99986.44
2022-09-24T14:01:41.604Z,99989.31
2022-09-24T14:04:17.674Z,99987.50
2022-09-24T14:06:49.165Z,99977.88
2022-09-24T14:09:25.709Z,99990.94
2022-09-24T14:11:56.193Z,99979.88
2022-09-24T14:14:26.597Z,99981.34
2022-09-24T14:17:06.396Z,99980.34
2022-09-24T14:19:36.031Z,99990.53
2022-09-24T14:22:05.697Z,99989.81
2022-09-24T14:24:36.671Z,99986.03
2022-09-24T14:27:08.108Z,99982.88
2022-09-24T14:29:46.989Z,99979.69
2022-09-24T14:32:24.025Z,99977.22
2022-09-24T14:34:55.758Z,99981.78
2022-09-24T14:37:27.491Z,99984.66
2022-09-24T14:40:02.819Z,99975.56
2022-09-24T14:42:34.832Z,99980.84
2022-09-24T14:45:04.547Z,99975.09
2022-09-24T14:47:35.717Z,99972.34
2022-09-24T14:50:06.005Z,99969.16
2022-09-24T14:52:37.702Z,99979.91
2022-09-24T14:55:16.136Z,99971.94
2022-09-24T14:57:48.632Z,99978.34
2022-09-24T15:00:26.697Z,99971.44
2022-09-24T15:03:01.258Z,99973.66
2022-09-24T15:05:30.542Z,99973.31
2022-09-24T15:08:22.243Z,99970.34
2022-09-24T15:10:54.858Z,99969.94
2022-09-24T15:13:25.601Z,99962.00
2022-09-24T15:16:07.891Z,99969.75
2022-09-24T15:18:37.065Z,99969.28
2022-09-24T15:21:08.202Z,99971.66
2022-09-24T15:23:36.236Z,99967.25
2022-09-24T15:26:04.417Z,99970.88
2022-09-24T15:28:32.457Z,99968.19
2022-09-24T15:31:00.257Z,99956.66
2022-09-24T15:33:28.058Z,99970.41
2022-09-24T15:35:57.578Z,99967.34
2022-09-24T15:38:25.649Z,99943.19
2022-09-24T15:40:54.285Z,99974.97
2022-09-24T15:43:23.454Z,99963.97
2022-09-24T15:45:51.822Z,99965.72
2022-09-24T15:48:19.999Z,99968.25
2022-09-24T15:50:50.381Z,99962.16
2022-09-24T15:53:23.790Z,99964.13
2022-09-24T15:55:54.844Z,99955.88
2022-09-24T15:58:22.994Z,99963.50
2022-09-24T16:00:51.403Z,99964.47
2022-09-24T16:03:21.923Z,99970.94
2022-09-24T16:05:50.115Z,99971.81
2022-09-24T16:08:18.249Z,99962.47
2022-09-24T16:10:47.861Z,99962.69
2022-09-24T16:13:16.691Z,99968.50
2022-09-24T16:15:44.991Z,99972.66
2022-09-24T16:18:14.958Z,99975.94
2022-09-24T16:20:45.290Z,99971.34
2022-09-24T16:23:15.204Z,99971.06
2022-09-24T16:25:54.228Z,99971.91
2022-09-24T16:28:23.971Z,99977.69
2022-09-24T16:30:54.701Z,99972.47
2022-09-24T16:33:23.216Z,99980.16
2022-09-24T16:35:51.045Z,99985.13
2022-09-24T16:38:22.830Z,99982.66
2022-09-24T16:40:52.102Z,99987.06
2022-09-24T16:43:20.033Z,99984.56
2022-09-24T16:45:49.181Z,99987.88
2022-09-24T16:48:16.996Z,99990.34
2022-09-24T16:50:44.845Z,99990.34
2022-09-24T16:53:12.600Z,99991.97
2022-09-24T16:55:40.307Z,99995.25
2022-09-24T16:58:08.018Z,99992.81
2022-09-24T17:00:35.822Z,99994.16
2022-09-24T17:03:05.100Z,99995.25
2022-09-24T17:05:40.398Z,99990.56
2022-09-24T17:08:08.099Z,99997.72
2022-09-24T17:10:34.898Z,99998.53
2022-09-24T17:13:02.730Z,99990.84
2022-09-24T17:15:31.337Z,99997.72
2022-09-24T17:17:59.416Z,99990.03
2022-09-24T17:20:31.638Z,99990.00
2022-09-24T17:22:59.505Z,99994.94
2022-09-24T17:25:27.807Z,99983.41
2022-09-24T17:28:01.816Z,99988.84
2022-09-24T17:30:32.162Z,99985.84
2022-09-24T17:33:00.174Z,100002.31
2022-09-24T17:35:29.405Z,99999.25
2022-09-24T17:37:57.210Z,99992.38
2022-09-24T17:40:24.991Z,100008.00
2022-09-24T17:42:52.862Z,100013.75
2022-09-24T17:45:21.388Z,100001.91
2022-09-24T17:47:58.468Z,100007.66
2022-09-24T17:50:26.546Z,99997.75
2022-09-24T17:52:55.682Z,100006.47
2022-09-24T17:55:23.423Z,100009.16
2022-09-24T17:57:51.158Z,100009.63
2022-09-24T18:00:19.102Z,100010.97
2022-09-24T18:02:46.986Z,100015.75
2022-09-24T18:05:16.293Z,99993.44
2022-09-24T18:07:45.220Z,100031.34
2022-09-24T18:10:17.204Z,100031.84
2022-09-24T18:12:44.975Z,100030.13
2022-09-24T18:15:12.694Z,100015.56
2022-09-24T18:17:40.450Z,100034.16
2022-09-24T18:20:08.836Z,100023.78
2022-09-24T18:22:36.584Z,100026.47
2022-09-24T18:25:06.293Z,100027.25
2022-09-24T18:27:36.303Z,100025.88
2022-09-24T18:30:05.687Z,100030.78
2022-09-24T18:32:34.610Z,100027.19
2022-09-24T18:35:02.636Z,100032.13
2022-09-24T18:37:30.379Z,100038.69
2022-09-24T18:39:58.340Z,100034.84
2022-09-24T18:42:27.786Z,100040.63
2022-09-24T18:44:56.912Z,100055.41
2022-09-24T18:47:24.616Z,100053.97
2022-09-24T18:49:55.906Z,100054.69
2022-09-24T18:52:23.845Z,100063.81
2022-09-24T18:54:51.728Z,100063.34
2022-09-24T18:57:19.480Z,100070.66
2022-09-24T18:59:48.649Z,100058.84
2022-09-24T19:02:17.875Z,100072.19
2022-09-24T19:04:45.671Z,100076.69
2022-09-24T19:07:16.446Z,100066.94
2022-09-24T19:09:44.170Z,100080.28
2022-09-24T19:12:12.864Z,100089.56
2022-09-24T19:14:41.619Z,100085.59
2022-09-24T19:17:09.360Z,100074.19
2022-09-24T19:19:38.418Z,100088.13
2022-09-24T19:22:06.168Z,100088.84
2022-09-24T19:24:33.962Z,100102.44
2022-09-24T19:27:01.695Z,100113.88
2022-09-24T19:29:30.080Z,100118.84
2022-09-24T19:31:58.095Z,100120.91
2022-09-24T19:34:25.910Z,100129.69
2022-09-24T19:36:54.979Z,100130.16
2022-09-24T19:39:22.701Z,100129.34
2022-09-24T19:41:52.741Z,100126.03
2022-09-24T19:44:21.131Z,100130.09
2022-09-24T19:46:48.930Z,100125.75
2022-09-24T19:49:16.901Z,100129.13
2022-09-24T19:51:44.740Z,100125.91
2022-09-24T19:54:13.899Z,100127.69
2022-09-24T19:56:42.149Z,100130.09
2022-09-24T19:59:11.064Z,100126.19
2022-09-24T20:01:38.883Z,100126.97
2022-09-24T20:04:08.200Z,100122.34
2022-09-24T20:06:37.914Z,100125.31
2022-09-24T20:09:06.663Z,100122.06
2022-09-24T20:11:36.413Z,100127.31
2022-09-24T20:14:05.913Z,100127.31
2022-09-24T20:16:33.933Z,100123.25
2022-09-24T20:19:03.225Z,100123.75
2022-09-24T20:21:34.587Z,100120.78
2022-09-24T20:24:04.015Z,100128.59
2022-09-24T20:26:49.967Z,100120.88
2022-09-24T20:29:21.471Z,100126.97
2022-09-24T20:31:52.806Z,100124.22
2022-09-24T20:34:21.992Z,100127.13
2022-09-24T20:36:50.671Z,100127.88
2022-09-24T20:39:20.627Z,100127.28
2022-09-24T20:41:49.359Z,100130.59
2022-09-24T20:44:17.513Z,100139.63
2022-09-24T20:46:47.125Z,100132.13
2022-09-24T20:49:19.410Z,100131.56
2022-09-24T20:51:47.178Z,100131.06
2022-09-24T20:54:14.984Z,100123.13
2022-09-24T20:56:43.346Z,100117.53
2022-09-24T20:59:11.668Z,100111.41
2022-09-24T21:01:41.449Z,100119.81
2022-09-24T21:04:10.658Z,100123.19
2022-09-24T21:06:38.600Z,100129.81
2022-09-24T21:09:06.505Z,100120.31
2022-09-24T21:11:34.517Z,100129.47
2022-09-24T21:14:03.030Z,100127.19
2022-09-24T21:16:32.484Z,100130.75
2022-09-24T21:19:01.554Z,100133.38
2022-09-24T21:21:32.687Z,100128.84
2022-09-24T21:24:01.686Z,100127.44
2022-09-24T21:26:31.285Z,100117.94
2022-09-24T21:29:01.598Z,100127.19
2022-09-24T21:31:31.731Z,100130.75
2022-09-24T21:34:00.287Z,100130.28
2022-09-24T21:36:31.554Z,100130.63
2022-09-24T21:39:00.987Z,100134.53
2022-09-24T21:41:31.259Z,100139.88
2022-09-24T21:43:59.312Z,100144.34
2022-09-24T21:46:29.084Z,100131.72
2022-09-24T21:48:57.009Z,100139.03
2022-09-24T21:51:27.372Z,100144.09
2022-09-24T21:53:59.195Z,100151.25
2022-09-24T21:56:27.166Z,100155.00
2022-09-24T21:58:55.424Z,100150.63
2022-09-24T22:01:25.978Z,100151.25
2022-09-24T22:03:55.467Z,100162.28
2022-09-24T22:06:23.214Z,100157.28
2022-09-24T22:08:51.192Z,100164.88
2022-09-24T22:11:20.280Z,100165.81
2022-09-24T22:13:48.155Z,100166.41
2022-09-24T22:16:15.854Z,100167.38
2022-09-24T22:18:43.695Z,100161.66
2022-09-24T22:21:13.758Z,100153.38
2022-09-24T22:23:42.596Z,100153.38
2022-09-24T22:26:13.467Z,100142.94
2022-09-24T22:28:43.598Z,100150.97
2022-09-24T22:31:13.512Z,100150.53
2022-09-24T22:33:59.760Z,100149.94
2022-09-24T22:36:29.643Z,100145.81
2022-09-24T22:38:59.297Z,100142.56
2022-09-24T22:41:28.651Z,100136.31
2022-09-24T22:43:59.205Z,100140.22
2022-09-24T22:46:27.807Z,100140.13
2022-09-24T22:48:56.287Z,100142.25
2022-09-24T22:51:25.153Z,100149.13
2022-09-24T22:53:53.789Z,100145.56
2022-09-24T22:56:23.542Z,100146.41
2022-09-24T22:58:53.110Z,100140.59
2022-09-24T23:01:24.350Z,100149.22
2022-09-24T23:03:53.681Z,100150.28
2022-09-24T23:06:22.737Z,100150.28
2022-09-24T23:08:52.633Z,100142.94
2022-09-24T23:11:22.018Z,100130.16
2022-09-24T23:13:53.740Z,100121.28
2022-09-24T23:16:24.764Z,100126.50
2022-09-24T23:18:54.637Z,100119.75
2022-09-24T23:21:24.083Z,100127.44
2022-09-24T23:23:55.766Z,100121.75
2022-09-24T23:26:25.504Z,100113.44
2022-09-24T23:28:55.106Z,100115.34
2022-09-24T23:31:27.142Z,100116.78
2022-09-24T23:33:55.948Z,100119.03
2022-09-24T23:36:24.701Z,100112.84
2022-09-24T23:38:53.580Z,100108.81
2022-09-24T23:41:22.053Z,100114.16
2022-09-24T23:43:50.447Z,100114.88
2022-09-24T23:46:18.776Z,100108.25
2022-09-24T23:48:48.001Z,100104.59
2022-09-24T23:51:15.709Z,100108.94
2022-09-24T23:53:43.408Z,100111.69
2022-09-24T23:56:13.182Z,100111.09
2022-09-24T23:58:42.176Z,100105.88
